createdAt,value
2022-09-28T00:00:42.643Z,98181.41
2022-09-28T00:03:09.600Z,98186.59
2022-09-28T00:05:36.337Z,98190.81
2022-09-28T00:08:03.139Z,98185.47
2022-09-28T00:10:29.959Z,98190.81
2022-09-28T00:12:56.745Z,98182.69
2022-09-28T00:15:24.783Z,98180.91
2022-09-28T00:17:51.520Z,98186.94
2022-09-28T00:20:19.442Z,98176.53
2022-09-28T00:22:46.293Z,98181.88
2022-09-28T00:25:13.067Z,98171.09
2022-09-28T00:27:40.287Z,98175.97
2022-09-28T00:30:07.931Z,98170.56
2022-09-28T00:32:34.753Z,98172.03
2022-09-28T00:35:01.538Z,98177.81
2022-09-28T00:37:28.254Z,98175.75
2022-09-28T00:39:54.993Z,98172.81
2022-09-28T00:42:24.891Z,98173.69
2022-09-28T00:44:56.210Z,98170.88
2022-09-28T00:47:41.927Z,98168.34
2022-09-28T00:50:13.059Z,98174.50
2022-09-28T00:52:45.986Z,98171.72
2022-09-28T00:55:21.724Z,98166.28
2022-09-28T00:57:53.738Z,98168.94
2022-09-28T01:00:20.771Z,98161.78
2022-09-28T01:02:48.382Z,98163.38
2022-09-28T01:05:18.365Z,98151.88
2022-09-28T01:07:46.910Z,98157.22
2022-09-28T01:10:14.316Z,98160.00
2022-09-28T01:12:41.167Z,98158.28
2022-09-28T01:15:08.478Z,98166.16
2022-09-28T01:17:58.393Z,98167.13
2022-09-28T01:20:39.937Z,98168.94
2022-09-28T01:23:37.572Z,98156.41
2022-09-28T01:26:44.015Z,98152.56
2022-09-28T01:29:17.042Z,98151.81
2022-09-28T01:31:49.804Z,98152.56
2022-09-28T01:34:20.971Z,98156.06
2022-09-28T01:36:50.735Z,98154.38
2022-09-28T01:39:27.788Z,98159.56
2022-09-28T01:42:01.201Z,98153.28
2022-09-28T01:44:31.435Z,98153.97
2022-09-28T01:47:04.266Z,98152.31
2022-09-28T01:49:42.839Z,98147.72
2022-09-28T01:52:27.973Z,98155.69
2022-09-28T01:55:01.482Z,98155.69
2022-09-28T01:57:39.440Z,98159.19
2022-09-28T02:00:08.637Z,98160.88
2022-09-28T02:03:06.852Z,98160.75
2022-09-28T02:05:49.698Z,98164.25
2022-09-28T02:08:29.029Z,98157.38
2022-09-28T02:11:06.054Z,98157.56
2022-09-28T02:13:53.776Z,98160.34
2022-09-28T02:16:30.030Z,98157.81
2022-09-28T02:18:57.462Z,98166.38
2022-09-28T02:21:29.752Z,98162.59
2022-09-28T02:24:01.540Z,98167.78
2022-09-28T02:26:35.586Z,98159.69
2022-09-28T02:29:02.414Z,98163.22
2022-09-28T02:31:29.255Z,98155.09
2022-09-28T02:33:57.574Z,98150.63
2022-09-28T02:36:26.715Z,98161.13
2022-09-28T02:38:53.826Z,98158.47
2022-09-28T02:41:26.369Z,98163.66
2022-09-28T02:44:16.408Z,98172.47
2022-09-28T02:46:55.761Z,98172.59
2022-09-28T02:50:09.638Z,98171.66
2022-09-28T02:53:03.839Z,98180.59
2022-09-28T02:55:40.516Z,98178.91
2022-09-28T02:58:25.693Z,98176.25
2022-09-28T03:01:02.637Z,98172.72
2022-09-28T03:03:50.621Z,98164.75
2022-09-28T03:06:30.864Z,98161.25
2022-09-28T03:09:04.755Z,98163.09
2022-09-28T03:11:39.737Z,98156.91
2022-09-28T03:14:07.000Z,98158.72
2022-09-28T03:16:46.369Z,98161.75
2022-09-28T03:19:14.408Z,98165.41
2022-09-28T03:21:41.404Z,98165.25
2022-09-28T03:24:10.615Z,98176.75
2022-09-28T03:26:38.980Z,98165.25
2022-09-28T03:29:06.646Z,98167.09
2022-09-28T03:31:35.217Z,98163.59
2022-09-28T03:34:02.434Z,98161.75
2022-09-28T03:36:29.363Z,98165.53
2022-09-28T03:38:56.429Z,98158.66
2022-09-28T03:41:25.030Z,98159.59
2022-09-28T03:43:51.789Z,98155.28
2022-09-28T03:46:18.809Z,98156.94
2022-09-28T03:48:49.725Z,98154.16
2022-09-28T03:51:16.485Z,98158.66
2022-09-28T03:53:43.375Z,98154.16
2022-09-28T03:56:13.842Z,98154.16
2022-09-28T03:58:42.327Z,98150.53
2022-09-28T04:01:16.935Z,98156.56
2022-09-28T04:03:46.235Z,98154.78
2022-09-28T04:06:14.029Z,98161.63
2022-09-28T04:08:40.957Z,98165.88
2022-09-28T04:11:08.577Z,98163.09
2022-09-28T04:13:35.494Z,98167.28
2022-09-28T04:16:02.460Z,98166.19
2022-09-28T04:18:33.435Z,98173.81
2022-09-28T04:21:23.357Z,98162.91
2022-09-28T04:23:55.856Z,98166.03
2022-09-28T04:26:25.106Z,98164.94
2022-09-28T04:29:10.650Z,98157.41
2022-09-28T04:31:53.509Z,98157.84
2022-09-28T04:34:23.623Z,98153.13
2022-09-28T04:36:51.186Z,98154.44
2022-09-28T04:39:21.603Z,98154.16
2022-09-28T04:41:51.555Z,98138.59
2022-09-28T04:44:18.838Z,98138.53
2022-09-28T04:46:47.266Z,98144.41
2022-09-28T04:49:29.529Z,98152.41
2022-09-28T04:52:06.938Z,98152.97
2022-09-28T04:54:34.788Z,98149.94
2022-09-28T04:57:03.380Z,98153.56
2022-09-28T04:59:30.300Z,98151.91
2022-09-28T05:01:57.351Z,98147.34
2022-09-28T05:04:39.386Z,98147.16
2022-09-28T05:07:20.233Z,98146.09
2022-09-28T05:09:46.991Z,98150.13
2022-09-28T05:12:15.086Z,98144.78
2022-09-28T05:14:42.103Z,98147.31
2022-09-28T05:17:10.294Z,98142.59
2022-09-28T05:19:57.432Z,98150.25
2022-09-28T05:22:24.264Z,98148.25
2022-09-28T05:24:51.809Z,98144.16
2022-09-28T05:27:18.551Z,98149.00
2022-09-28T05:29:52.437Z,98143.59
2022-09-28T05:32:44.375Z,98136.50
2022-09-28T05:35:18.839Z,98134.03
2022-09-28T05:37:47.531Z,98136.91
2022-09-28T05:40:14.791Z,98141.88
2022-09-28T05:42:42.248Z,98142.84
2022-09-28T05:45:10.209Z,98149.22
2022-09-28T05:47:43.751Z,98150.06
2022-09-28T05:50:11.991Z,98156.53
2022-09-28T05:52:39.615Z,98164.13
2022-09-28T05:55:08.027Z,98158.00
2022-09-28T05:57:35.045Z,98160.22
2022-09-28T06:00:06.024Z,98164.16
2022-09-28T06:02:39.303Z,98150.31
2022-09-28T06:05:08.695Z,98157.97
2022-09-28T06:07:35.638Z,98156.41
2022-09-28T06:10:02.906Z,98156.91
2022-09-28T06:12:39.860Z,98148.69
2022-09-28T06:15:12.338Z,98155.81
2022-09-28T06:17:39.812Z,98144.81
2022-09-28T06:20:26.900Z,98149.31
2022-09-28T06:23:07.901Z,98144.09
2022-09-28T06:25:34.761Z,98135.91
2022-09-28T06:28:05.083Z,98127.31
2022-09-28T06:30:34.688Z,98123.50
2022-09-28T06:33:02.578Z,98129.28
2022-09-28T06:35:30.979Z,98125.72
2022-09-28T06:37:59.952Z,98119.97
2022-09-28T06:40:28.086Z,98124.81
2022-09-28T06:43:00.383Z,98122.66
2022-09-28T06:45:52.326Z,98123.06
2022-09-28T06:48:42.941Z,98132.47
2022-09-28T06:51:12.670Z,98130.47
2022-09-28T06:53:53.963Z,98133.00
2022-09-28T06:56:41.017Z,98130.41
2022-09-28T06:59:07.775Z,98125.94
2022-09-28T07:01:36.291Z,98118.38
2022-09-28T07:04:42.038Z,98119.84
2022-09-28T07:07:31.875Z,98117.75
2022-09-28T07:10:11.423Z,98114.69
2022-09-28T07:12:44.376Z,98114.44
2022-09-28T07:15:32.539Z,98115.59
2022-09-28T07:18:03.558Z,98102.91
2022-09-28T07:20:38.720Z,98102.75
2022-09-28T07:23:19.228Z,98097.94
2022-09-28T07:26:25.691Z,98099.34
2022-09-28T07:29:18.922Z,98103.22
2022-09-28T07:32:17.656Z,98097.19
2022-09-28T07:34:58.919Z,98101.19
2022-09-28T07:38:00.588Z,98102.56
2022-09-28T07:40:48.450Z,98111.06
2022-09-28T07:43:20.778Z,98101.31
2022-09-28T07:45:52.600Z,98102.78
2022-09-28T07:48:20.144Z,98105.63
2022-09-28T07:51:25.331Z,98109.91
2022-09-28T07:54:10.775Z,98107.38
2022-09-28T07:56:44.307Z,98118.06
2022-09-28T07:59:26.982Z,98118.53
2022-09-28T08:02:20.571Z,98115.47
2022-09-28T08:04:48.621Z,98117.94
2022-09-28T08:07:20.480Z,98116.63
2022-09-28T08:09:55.376Z,98109.59
2022-09-28T08:12:27.723Z,98111.50
2022-09-28T08:15:13.475Z,98106.53
2022-09-28T08:17:59.089Z,98095.66
2022-09-28T08:20:51.325Z,98103.72
2022-09-28T08:23:19.810Z,98113.22
2022-09-28T08:25:52.646Z,98101.47
2022-09-28T08:28:20.222Z,98103.03
2022-09-28T08:30:49.108Z,98102.41
2022-09-28T08:33:42.203Z,98098.41
2022-09-28T08:36:28.467Z,98099.63
2022-09-28T08:39:01.307Z,98107.03
2022-09-28T08:41:37.002Z,98107.72
2022-09-28T08:44:26.896Z,98100.09
2022-09-28T08:47:59.534Z,98090.75
2022-09-28T08:50:49.489Z,98090.00
2022-09-28T08:53:27.398Z,98092.84
2022-09-28T08:56:37.992Z,98077.63
2022-09-28T08:59:12.716Z,98080.19
2022-09-28T09:02:03.566Z,98075.69
2022-09-28T09:04:33.689Z,98076.84
2022-09-28T09:07:58.358Z,98072.94
2022-09-28T09:10:42.688Z,98074.59
2022-09-28T09:13:37.251Z,98087.00
2022-09-28T09:16:19.890Z,98086.41
2022-09-28T09:19:20.413Z,98090.84
2022-09-28T09:22:17.949Z,98097.47
2022-09-28T09:24:54.809Z,98086.25
2022-09-28T09:27:37.661Z,98089.28
2022-09-28T09:30:18.836Z,98093.72
2022-09-28T09:32:53.473Z,98092.41
2022-09-28T09:35:38.854Z,98085.84
2022-09-28T09:38:55.967Z,98083.53
2022-09-28T09:41:57.446Z,98085.56
2022-09-28T09:45:17.133Z,98082.84
2022-09-28T09:48:14.432Z,98071.03
2022-09-28T09:51:23.821Z,98065.19
2022-09-28T09:54:04.566Z,98060.34
2022-09-28T09:56:37.199Z,98060.81
2022-09-28T09:59:24.508Z,98067.06
2022-09-28T10:02:28.608Z,98062.44
2022-09-28T10:05:24.216Z,98075.50
2022-09-28T10:08:03.204Z,98064.47
2022-09-28T10:10:35.430Z,98071.41
2022-09-28T10:13:21.071Z,98065.44
2022-09-28T10:15:50.530Z,98072.59
2022-09-28T10:18:28.848Z,98078.44
2022-09-28T10:21:15.824Z,98081.88
2022-09-28T10:23:55.250Z,98077.34
2022-09-28T10:26:37.487Z,98082.31
2022-09-28T10:29:14.743Z,98077.16
2022-09-28T10:31:51.543Z,98084.03
2022-09-28T10:34:38.519Z,98080.03
2022-09-28T10:37:15.350Z,98078.59
2022-09-28T10:40:05.808Z,98077.59
2022-09-28T10:42:36.243Z,98073.22
2022-09-28T10:45:18.832Z,98073.25
2022-09-28T10:47:46.423Z,98067.19
2022-09-28T10:50:24.596Z,98069.19
2022-09-28T10:53:19.938Z,98070.31
2022-09-28T10:56:20.192Z,98076.53
2022-09-28T10:58:48.980Z,98077.34
2022-09-28T11:01:31.076Z,98083.50
2022-09-28T11:04:01.218Z,98080.13
2022-09-28T11:06:36.194Z,98082.00
2022-09-28T11:09:21.074Z,98079.41
2022-09-28T11:11:48.204Z,98083.09
2022-09-28T11:14:43.624Z,98075.53
2022-09-28T11:17:17.281Z,98078.06
2022-09-28T11:19:45.883Z,98083.25
2022-09-28T11:22:29.191Z,98085.31
2022-09-28T11:25:33.265Z,98084.03
2022-09-28T11:28:04.617Z,98078.97
2022-09-28T11:30:54.277Z,98069.38
2022-09-28T11:33:36.749Z,98078.94
2022-09-28T11:36:45.375Z,98072.88
2022-09-28T11:39:37.350Z,98073.53
2022-09-28T11:42:16.732Z,98074.03
2022-09-28T11:44:47.082Z,98074.66
2022-09-28T11:47:21.036Z,98077.88
2022-09-28T11:49:57.503Z,98065.88
2022-09-28T11:52:27.709Z,98072.00
2022-09-28T11:55:02.425Z,98073.69
2022-09-28T11:57:36.590Z,98070.75
2022-09-28T12:00:20.822Z,98071.66
2022-09-28T12:03:07.246Z,98081.19
2022-09-28T12:05:40.491Z,98087.44
2022-09-28T12:08:28.991Z,98089.44
2022-09-28T12:11:11.107Z,98095.19
2022-09-28T12:14:00.900Z,98091.66
2022-09-28T12:17:05.890Z,98095.47
2022-09-28T12:19:44.338Z,98095.91
2022-09-28T12:22:21.055Z,98100.66
2022-09-28T12:24:52.749Z,98091.25
2022-09-28T12:27:28.436Z,98093.94
2022-09-28T12:29:55.253Z,98090.00
2022-09-28T12:32:28.669Z,98092.94
2022-09-28T12:34:56.827Z,98092.50
2022-09-28T12:37:40.338Z,98094.75
2022-09-28T12:40:22.630Z,98094.19
2022-09-28T12:43:17.698Z,98099.09
2022-09-28T12:46:11.418Z,98099.38
2022-09-28T12:48:58.416Z,98086.06
2022-09-28T12:51:54.548Z,98092.91
2022-09-28T12:54:42.993Z,98093.91
2022-09-28T12:57:34.689Z,98091.13
2022-09-28T13:00:26.092Z,98091.13
2022-09-28T13:03:31.714Z,98089.84
2022-09-28T13:06:07.770Z,98083.81
2022-09-28T13:08:55.267Z,98085.91
2022-09-28T13:11:22.092Z,98095.47
2022-09-28T13:14:13.505Z,98089.41
2022-09-28T13:17:03.180Z,98084.38
2022-09-28T13:19:36.279Z,98090.84
2022-09-28T13:22:24.561Z,98087.47
2022-09-28T13:24:55.391Z,98087.47
2022-09-28T13:27:46.208Z,98080.44
2022-09-28T13:30:15.034Z,98083.97
2022-09-28T13:32:44.180Z,98083.94
2022-09-28T13:35:21.734Z,98097.72
2022-09-28T13:38:17.687Z,98101.22
2022-09-28T13:41:06.338Z,98091.97
2022-09-28T13:44:00.742Z,98097.44
2022-09-28T13:46:40.436Z,98105.19
2022-09-28T13:49:49.350Z,98107.84
2022-09-28T13:52:54.881Z,98120.34
2022-09-28T13:55:24.992Z,98099.81
2022-09-28T13:58:00.794Z,98110.38
2022-09-28T14:00:47.072Z,98116.44
2022-09-28T14:03:27.192Z,98119.66
2022-09-28T14:06:00.787Z,98109.66
2022-09-28T14:08:58.272Z,98113.75
2022-09-28T14:11:42.594Z,98105.03
2022-09-28T14:14:13.810Z,98105.72
2022-09-28T14:16:44.378Z,98109.94
2022-09-28T14:19:14.234Z,98105.00
2022-09-28T14:21:56.104Z,98096.03
2022-09-28T14:24:45.156Z,98107.69
2022-09-28T14:27:23.990Z,98111.31
2022-09-28T14:30:05.301Z,98126.50
2022-09-28T14:32:37.077Z,98119.22
2022-09-28T14:35:07.494Z,98113.44
2022-09-28T14:37:56.435Z,98126.06
2022-09-28T14:40:49.745Z,98127.50
2022-09-28T14:43:35.038Z,98129.16
2022-09-28T14:46:11.354Z,98135.09
2022-09-28T14:48:57.219Z,98140.97
2022-09-28T14:51:26.774Z,98146.88
2022-09-28T14:53:56.543Z,98143.50
2022-09-28T14:56:25.466Z,98155.72
2022-09-28T14:58:58.153Z,98154.44
2022-09-28T15:01:26.120Z,98151.94
2022-09-28T15:03:56.135Z,98155.44
2022-09-28T15:06:24.259Z,98155.59
2022-09-28T15:08:51.294Z,98165.16
2022-09-28T15:11:27.441Z,98167.84
2022-09-28T15:14:06.423Z,98166.09
2022-09-28T15:16:33.796Z,98182.88
2022-09-28T15:19:10.467Z,98179.59
2022-09-28T15:21:40.542Z,98184.69
2022-09-28T15:24:28.880Z,98185.06
2022-09-28T15:26:56.895Z,98189.25
2022-09-28T15:29:25.843Z,98185.72
2022-09-28T15:31:54.662Z,98183.16
2022-09-28T15:34:46.137Z,98187.69
2022-09-28T15:37:16.714Z,98192.16
2022-09-28T15:39:44.565Z,98193.84
2022-09-28T15:42:11.506Z,98201.41
2022-09-28T15:44:39.655Z,98201.69
2022-09-28T15:47:16.779Z,98208.53
2022-09-28T15:49:53.259Z,98217.69
2022-09-28T15:52:26.251Z,98219.38
2022-09-28T15:54:54.193Z,98229.34
2022-09-28T15:57:29.947Z,98228.88
2022-09-28T15:59:59.353Z,98228.31
2022-09-28T16:02:27.284Z,98237.75
2022-09-28T16:05:00.803Z,98241.56
2022-09-28T16:07:56.786Z,98247.94
2022-09-28T16:10:35.119Z,98250.75
2022-09-28T16:13:23.269Z,98256.22
2022-09-28T16:16:00.307Z,98259.97
2022-09-28T16:18:29.822Z,98275.53
2022-09-28T16:21:24.656Z,98284.34
2022-09-28T16:23:55.702Z,98297.09
2022-09-28T16:26:33.078Z,98287.50
2022-09-28T16:29:00.754Z,98287.69
2022-09-28T16:31:33.815Z,98291.34
2022-09-28T16:34:09.579Z,98301.38
2022-09-28T16:36:46.194Z,98305.84
2022-09-28T16:39:16.978Z,98307.28
2022-09-28T16:41:48.352Z,98310.22
2022-09-28T16:44:21.305Z,98304.22
2022-09-28T16:46:48.205Z,98307.13
2022-09-28T16:49:20.146Z,98309.41
2022-09-28T16:51:47.887Z,98310.69
2022-09-28T16:54:37.103Z,98313.59
2022-09-28T16:57:06.106Z,98323.81
2022-09-28T16:59:32.971Z,98327.88
2022-09-28T17:01:59.845Z,98319.16
2022-09-28T17:04:27.155Z,98318.06
2022-09-28T17:06:55.640Z,98319.81
2022-09-28T17:09:23.368Z,98323.56
2022-09-28T17:11:56.739Z,98323.38
2022-09-28T17:14:24.300Z,98330.31
2022-09-28T17:17:13.756Z,98340.31
2022-09-28T17:19:40.919Z,98344.25
2022-09-28T17:22:09.267Z,98358.06
2022-09-28T17:24:36.574Z,98368.28
2022-09-28T17:27:03.883Z,98361.94
2022-09-28T17:29:30.650Z,98373.06
2022-09-28T17:31:57.447Z,98386.13
2022-09-28T17:34:24.322Z,98379.34
2022-09-28T17:36:51.995Z,98393.91
2022-09-28T17:39:19.356Z,98387.56
2022-09-28T17:41:46.262Z,98388.91
2022-09-28T17:44:16.254Z,98397.19
2022-09-28T17:46:46.364Z,98398.78
2022-09-28T17:49:14.006Z,98400.81
2022-09-28T17:51:40.887Z,98405.66
2022-09-28T17:54:08.894Z,98406.94
2022-09-28T17:56:36.794Z,98407.44
2022-09-28T17:59:10.367Z,98414.22
2022-09-28T18:01:39.371Z,98413.75
2022-09-28T18:04:08.982Z,98415.13
2022-09-28T18:06:37.401Z,98420.72
2022-09-28T18:09:05.835Z,98424.75
2022-09-28T18:11:33.862Z,98426.28
2022-09-28T18:14:00.881Z,98432.84
2022-09-28T18:16:28.937Z,98431.53
2022-09-28T18:18:56.790Z,98438.25
2022-09-28T18:21:23.887Z,98440.31
2022-09-28T18:23:50.651Z,98446.09
2022-09-28T18:26:19.867Z,98449.22
2022-09-28T18:28:47.303Z,98453.97
2022-09-28T18:31:15.894Z,98452.00
2022-09-28T18:33:50.371Z,98455.84
2022-09-28T18:36:17.346Z,98458.91
2022-09-28T18:38:44.262Z,98461.03
2022-09-28T18:41:15.740Z,98460.50
2022-09-28T18:43:51.349Z,98459.09
2022-09-28T18:46:18.504Z,98464.75
2022-09-28T18:48:47.505Z,98471.06
2022-09-28T18:51:14.561Z,98469.66
2022-09-28T18:53:41.354Z,98472.47
2022-09-28T18:56:11.017Z,98477.09
2022-09-28T18:58:39.240Z,98479.06
2022-09-28T19:04:00.572Z,98482.44
2022-09-28T19:06:27.817Z,98489.00
2022-09-28T19:08:57.830Z,98486.16
2022-09-28T19:11:25.600Z,98486.84
2022-09-28T19:13:54.448Z,98489.53
2022-09-28T19:16:24.211Z,98492.13
2022-09-28T19:18:53.711Z,98505.94
2022-09-28T19:21:21.087Z,98497.75
2022-09-28T19:23:53.652Z,98503.34
2022-09-28T19:26:23.129Z,98508.34
2022-09-28T19:28:50.524Z,98515.13
2022-09-28T19:31:17.484Z,98524.66
2022-09-28T19:33:48.165Z,98527.94
2022-09-28T19:36:18.522Z,98533.88
2022-09-28T19:38:45.959Z,98530.88
2022-09-28T19:41:39.299Z,98535.75
2022-09-28T19:44:10.447Z,98536.91
2022-09-28T19:46:39.038Z,98539.69
2022-09-28T19:49:11.419Z,98542.72
2022-09-28T19:51:51.446Z,98540.41
2022-09-28T19:54:33.124Z,98547.75
2022-09-28T19:57:07.831Z,98554.03
2022-09-28T19:59:36.722Z,98549.78
2022-09-28T20:02:05.614Z,98553.44
2022-09-28T20:04:32.377Z,98559.53
2022-09-28T20:06:59.097Z,98553.25
2022-09-28T20:09:25.892Z,98560.22
2022-09-28T20:11:53.161Z,98562.94
2022-09-28T20:14:21.445Z,98557.66
2022-09-28T20:16:50.231Z,98564.78
2022-09-28T20:19:19.111Z,98562.63
2022-09-28T20:21:48.120Z,98562.13
2022-09-28T20:24:16.779Z,98566.16
2022-09-28T20:26:44.674Z,98565.66
2022-09-28T20:29:11.898Z,98570.38
2022-09-28T20:31:38.743Z,98568.03
2022-09-28T20:34:06.513Z,98575.34
2022-09-28T20:36:33.626Z,98573.00
2022-09-28T20:39:04.089Z,98572.44
2022-09-28T20:41:36.661Z,98570.97
2022-09-28T20:44:05.930Z,98579.97
2022-09-28T20:46:34.801Z,98575.00
2022-09-28T20:49:02.207Z,98572.38
2022-09-28T20:51:28.974Z,98578.72
2022-09-28T20:53:57.201Z,98580.69
2022-09-28T20:56:37.549Z,98577.34
2022-09-28T20:59:07.626Z,98576.50
2022-09-28T21:01:35.340Z,98573.03
2022-09-28T21:04:04.664Z,98580.91
2022-09-28T21:06:34.215Z,98588.00
2022-09-28T21:09:01.309Z,98583.09
2022-09-28T21:11:29.603Z,98594.78
2022-09-28T21:13:59.368Z,98599.41
2022-09-28T21:16:28.258Z,98601.34
2022-09-28T21:18:55.050Z,98598.63
2022-09-28T21:21:23.096Z,98593.94
2022-09-28T21:23:54.055Z,98599.97
2022-09-28T21:26:26.578Z,98601.84
2022-09-28T21:28:58.150Z,98610.81
2022-09-28T21:31:29.435Z,98610.28
2022-09-28T21:33:57.376Z,98606.28
2022-09-28T21:36:25.151Z,98605.47
2022-09-28T21:38:52.138Z,98613.44
2022-09-28T21:41:18.812Z,98617.06
2022-09-28T21:43:45.797Z,98619.75
2022-09-28T21:46:12.870Z,98622.50
2022-09-28T21:48:39.779Z,98632.16
2022-09-28T21:51:09.224Z,98632.22
2022-09-28T21:53:37.876Z,98641.72
2022-09-28T21:56:07.142Z,98640.03
2022-09-28T21:58:35.692Z,98646.19
2022-09-28T22:01:34.860Z,98649.59
2022-09-28T22:04:01.676Z,98654.03
2022-09-28T22:06:28.437Z,98639.09
2022-09-28T22:08:55.699Z,98658.44
2022-09-28T22:11:25.565Z,98653.22
2022-09-28T22:13:57.551Z,98661.06
2022-09-28T22:16:27.648Z,98654.97
2022-09-28T22:18:54.707Z,98656.78
2022-09-28T22:21:26.724Z,98660.38
2022-09-28T22:23:53.917Z,98660.53
2022-09-28T22:26:23.543Z,98661.50
2022-09-28T22:29:08.174Z,98661.63
2022-09-28T22:31:37.858Z,98664.56
2022-09-28T22:34:05.322Z,98654.28
2022-09-28T22:36:32.459Z,98649.31
2022-09-28T22:38:59.827Z,98659.94
2022-09-28T22:41:27.186Z,98665.25
2022-09-28T22:43:55.139Z,98670.56
2022-09-28T22:46:25.136Z,98671.53
2022-09-28T22:48:57.493Z,98675.22
2022-09-28T22:51:26.600Z,98678.91
2022-09-28T22:53:53.411Z,98678.06
2022-09-28T22:56:20.353Z,98678.84
2022-09-28T22:58:47.201Z,98679.69
2022-09-28T23:01:15.415Z,98674.44
2022-09-28T23:03:42.639Z,98673.53
2022-09-28T23:06:10.898Z,98668.31
2022-09-28T23:08:38.354Z,98674.44
2022-09-28T23:11:06.196Z,98669.38
2022-09-28T23:13:33.262Z,98675.63
2022-09-28T23:16:05.675Z,98672.22
2022-09-28T23:18:35.957Z,98674.91
2022-09-28T23:21:05.769Z,98681.16
2022-09-28T23:23:33.335Z,98681.22
2022-09-28T23:26:09.489Z,98679.56
2022-09-28T23:28:36.218Z,98681.41
2022-09-28T23:31:11.229Z,98694.81
2022-09-28T23:33:38.080Z,98691.72
2022-09-28T23:36:05.076Z,98690.38
2022-09-28T23:38:31.825Z,98686.09
2022-09-28T23:40:58.591Z,98695.84
2022-09-28T23:43:25.412Z,98691.66
2022-09-28T23:45:52.099Z,98685.69
2022-09-28T23:48:18.835Z,98685.88
2022-09-28T23:50:45.774Z,98687.63
2022-09-28T23:53:14.290Z,98693.00
2022-09-28T23:55:42.975Z,98689.53
2022-09-28T23:58:10.649Z,98696.25
